createdAt,value
2018-11-23T00:10:04.704Z,16.13
2018-11-23T00:20:23.762Z,15.90
2018-11-23T00:30:42.098Z,16.00
2018-11-23T00:41:00.583Z,13.77
2018-11-23T00:51:18.573Z,12.87
2018-11-23T01:01:54.510Z,12.47
2018-11-23T01:12:12.405Z,11.77
2018-11-23T01:22:30.582Z,11.70
2018-11-23T01:32:49.318Z,12.23
2018-11-23T01:43:07.797Z,12.80
2018-11-23T01:53:26.037Z,12.03
2018-11-23T02:03:43.800Z,11.53
2018-11-23T02:14:01.784Z,12.10
2018-11-23T02:24:19.769Z,11.33
2018-11-23T02:34:38.639Z,11.87
2018-11-23T02:44:56.823Z,10.73
2018-11-23T02:55:16.590Z,9.60
2018-11-23T03:05:35.231Z,9.93
2018-11-23T03:15:52.984Z,10.27
2018-11-23T03:26:10.818Z,9.80
2018-11-23T03:36:28.887Z,10.37
2018-11-23T03:46:47.117Z,10.73
2018-11-23T03:57:05.285Z,11.33
2018-11-23T04:07:24.933Z,11.10
2018-11-23T04:17:43.479Z,10.10
2018-11-23T04:28:01.825Z,9.83
2018-11-23T04:38:19.830Z,8.77
2018-11-23T04:48:37.719Z,9.50
2018-11-23T04:58:56.046Z,8.63
2018-11-23T05:09:14.330Z,7.50
2018-11-23T05:19:32.350Z,8.20
2018-11-23T05:29:50.273Z,7.97
2018-11-23T05:40:10.006Z,8.63
2018-11-23T05:50:27.829Z,8.33
2018-11-23T06:00:46.204Z,8.57
2018-11-23T06:11:04.009Z,8.50
2018-11-23T06:21:21.894Z,8.63
2018-11-23T06:31:39.855Z,10.87
2018-11-23T06:41:58.113Z,7.87
2018-11-23T06:52:16.514Z,7.43
2018-11-23T07:02:34.482Z,7.67
2018-11-23T07:12:52.426Z,6.90
2018-11-23T07:23:10.412Z,7.37
2018-11-23T07:33:28.504Z,5.83
2018-11-23T07:43:46.667Z,5.70
2018-11-23T07:54:04.651Z,6.00
2018-11-23T08:04:23.543Z,5.90
2018-11-23T08:14:42.057Z,5.40
2018-11-23T08:25:00.799Z,5.77
2018-11-23T08:35:18.592Z,5.77
2018-11-23T08:45:36.922Z,5.87
2018-11-23T08:55:54.463Z,5.53
2018-11-23T09:06:12.732Z,5.93
2018-11-23T09:16:30.762Z,6.00
2018-11-23T09:26:49.035Z,5.77
2018-11-23T09:37:06.874Z,5.70
2018-11-23T09:47:24.799Z,6.20
2018-11-23T09:57:42.777Z,5.77
2018-11-23T10:08:08.178Z,6.43
2018-11-23T10:18:26.045Z,6.30
2018-11-23T10:28:44.180Z,6.07
2018-11-23T10:39:01.963Z,6.13
2018-11-23T10:49:20.330Z,6.20
2018-11-23T10:59:38.261Z,7.30
2018-11-23T11:09:56.382Z,8.17
2018-11-23T11:20:14.475Z,8.23
2018-11-23T11:30:32.741Z,7.93
2018-11-23T11:40:50.564Z,8.80
2018-11-23T11:51:09.722Z,7.60
2018-11-23T12:01:27.894Z,8.67
2018-11-23T12:11:45.963Z,9.03
2018-11-23T12:22:04.710Z,8.30
2018-11-23T12:32:22.011Z,8.63
2018-11-23T12:42:40.657Z,9.10
2018-11-23T12:53:05.806Z,8.83
2018-11-23T13:03:16.594Z,8.73
2018-11-23T13:13:34.647Z,9.30
2018-11-23T13:23:52.432Z,8.67
2018-11-23T13:34:10.392Z,9.50
2018-11-23T13:44:28.475Z,11.00
2018-11-23T13:54:47.079Z,9.80
2018-11-23T14:05:07.006Z,9.70
2018-11-23T14:15:25.998Z,9.40
2018-11-23T14:25:43.776Z,13.10
2018-11-23T14:36:01.878Z,12.93
2018-11-23T14:46:20.012Z,13.93
2018-11-23T14:56:37.970Z,14.20
2018-11-23T15:06:55.886Z,14.50
2018-11-23T15:17:14.066Z,28.90
2018-11-23T15:27:32.165Z,26.80
2018-11-23T15:37:50.168Z,22.40
2018-11-23T15:48:08.832Z,24.03
2018-11-23T15:58:27.565Z,23.50
2018-11-23T16:08:45.547Z,22.37
2018-11-23T16:19:03.786Z,32.73
2018-11-23T16:29:21.362Z,24.87
2018-11-23T16:39:39.636Z,26.47
2018-11-23T16:49:57.812Z,25.17
2018-11-23T17:00:21.244Z,32.33
2018-11-23T17:10:38.901Z,22.13
2018-11-23T17:20:59.246Z,30.23
2018-11-23T17:31:14.679Z,23.33
2018-11-23T17:41:32.613Z,28.57
2018-11-23T17:51:50.619Z,21.23
2018-11-23T18:02:08.717Z,27.00
2018-11-23T18:12:26.909Z,19.00
2018-11-23T18:22:45.475Z,26.93
2018-11-23T18:33:04.578Z,21.00
2018-11-23T18:43:22.433Z,52.47
2018-11-23T18:53:40.539Z,23.13
2018-11-23T19:03:58.582Z,29.13
2018-11-23T19:14:16.603Z,23.80
2018-11-23T19:24:34.632Z,21.00
2018-11-23T19:34:52.831Z,17.27
2018-11-23T19:45:17.408Z,19.57
2018-11-23T19:55:36.316Z,19.27
2018-11-23T20:05:54.785Z,18.90
2018-11-23T20:16:12.471Z,20.03
2018-11-23T20:26:31.365Z,17.37
2018-11-23T20:36:49.445Z,18.77
2018-11-23T20:47:07.637Z,17.17
2018-11-23T20:57:25.961Z,19.30
2018-11-23T21:07:44.916Z,18.37
2018-11-23T21:18:04.245Z,18.50
2018-11-23T21:28:22.056Z,18.87
2018-11-23T21:38:40.123Z,20.27
2018-11-23T21:48:58.222Z,17.93
2018-11-23T21:59:15.972Z,17.97
2018-11-23T22:09:34.187Z,16.47
2018-11-23T22:19:52.124Z,18.40
2018-11-23T22:30:23.415Z,18.63
2018-11-23T22:40:41.169Z,18.53
2018-11-23T22:50:59.150Z,15.97
2018-11-23T23:01:17.326Z,17.57
2018-11-23T23:11:35.110Z,19.17
2018-11-23T23:21:53.025Z,18.70
2018-11-23T23:32:10.913Z,22.73
2018-11-23T23:42:28.916Z,17.90
2018-11-23T23:52:46.947Z,19.27
